Forside
METAR-TAF:

METAR-TAF

Lufthavne :

Coffs Harbour, Australien

Breddekreds: 30-19-12S, længdekreds: 153-07-00E, højde: 5 m

Aktuelle vejr

Denne rapport blev lavet for 24 minutter siden, kl. 16:30 UTC
Vind 8 kt fra nordnordvest
Temperatur 19°C
Fugtighed 88%
Tryk 1013 hPa
Sigt 10 km eller mere

METAR: YCFS 231630Z AUTO 33008KT 9999 // NCD 19/17 Q1013 RF00.0/000.0

Tid: 03:54 (16:54 UTC)

Vejrudsigter

Denne rapport blev lavet for 5 timer og 22 minutter siden, kl. 11:32 UTC
Foreløbig gælder fra 23 på 12 UTC til 24 på 12 UTC
Vind 8 kt fra nord
Sigt 10 km eller mere
ingen skyer under 1500m og ingen cumulonimbus
Fra 24 på 0000 UTC
Vind 15 kt fra syd med vindstød på up til 25 kt
Sigt 10 km eller mere
Spredte skyer i en højde af 1500 ft
ændring
fra 24 på 06 UTC til 24 på 08 UTC
Vind 15 kt fra syd med vindstød på up til 25 kt
Sigt 10 km eller mere
Brudte skyer i en højde af 1500 ft

TAF: YCFS 231132Z 2312/2412 35008KT CAVOK FM240000 18015G25KT 9999 SCT015 BECMG 2406/2408 18015G25KT 9999 BKN015

Vejrobservationer og prognoser fra mere end 4000 lufthavne (METAR og TAF).

De gule og røde prikker repræsenterer de meteorologiske stationer.

Flyt musen over at se navnet på stationen.

Så klik over at se vejr observationer og prognoser.

At skifte det kort: Klik på de grønne knapper med et sort kors for at zoome ind; på den grønne knap med en bindestreg for at zoome ud; eller på de grønne pile for tilstødende kort.


METAR-TAF: